DECAM EDLW-EDLW

Flight info

Callsign DECAM
Flight time 0h 29m
Altitude 5000
Route EDLW/24 EDDL DCT BOT DCT
Aircraft SR22/L-SDGRY/S

Departure

Time 2026-05-04 17:16
Airport Dortmund Airport (EDLW)

Arrival

Time 2026-05-04 17:45
Airport Dortmund Airport (EDLW)
Time Latitude Longitude Altitude Speed Heading
2026-05-04 17:10 51.46238 6.70285 1991 ft 151 kts 59°
2026-05-04 17:11 51.46789 6.71727 1991 ft 157 kts 60°
2026-05-04 17:11 51.47358 6.73180 1990 ft 151 kts 60°
2026-05-04 17:11 51.48487 6.76049 1983 ft 151 kts 64°
2026-05-04 17:12 51.49006 6.77476 1984 ft 146 kts 61°
2026-05-04 17:12 51.50069 6.80176 2373 ft 132 kts 59°
2026-05-04 17:13 51.51497 6.83829 3490 ft 132 kts 60°
2026-05-04 17:14 51.52961 6.87629 4519 ft 135 kts 61°
2026-05-04 17:14 51.53457 6.88917 4874 ft 136 kts 61°
2026-05-04 17:14 51.54567 6.91829 4996 ft 170 kts 60°
2026-05-04 17:15 51.55205 6.93495 4996 ft 179 kts 61°
2026-05-04 17:15 51.56552 6.96995 4995 ft 187 kts 61°
2026-05-04 17:16 51.57923 7.00570 4996 ft 190 kts 61°
2026-05-04 17:16 51.59481 7.06347 4990 ft 186 kts 73°
2026-05-04 17:17 51.59916 7.08297 4988 ft 183 kts 73°
2026-05-04 17:17 51.61191 7.14035 4985 ft 181 kts 72°
2026-05-04 17:18 51.61612 7.15943 4984 ft 181 kts 73°
2026-05-04 17:18 51.62451 7.19751 4985 ft 180 kts 72°
2026-05-04 17:19 51.63294 7.23574 4987 ft 182 kts 72°
2026-05-04 17:19 51.64140 7.27426 4980 ft 183 kts 73°
2026-05-04 17:20 51.64987 7.31286 4978 ft 184 kts 72°
2026-05-04 17:20 51.65835 7.35158 4978 ft 183 kts 72°
2026-05-04 17:20 51.66258 7.37091 4980 ft 182 kts 73°
2026-05-04 17:21 51.67102 7.40951 4975 ft 182 kts 73°
2026-05-04 17:21 51.66935 7.44671 4973 ft 171 kts 137°
2026-05-04 17:22 51.65917 7.45590 4996 ft 167 kts 159°
2026-05-04 17:22 51.64930 7.46593 5014 ft 169 kts 144°
2026-05-04 17:23 51.62216 7.50233 5030 ft 170 kts 143°
2026-05-04 17:23 51.61304 7.51449 5031 ft 170 kts 143°
2026-05-04 17:23 51.59480 7.53880 5030 ft 170 kts 143°
2026-05-04 17:24 51.58570 7.55090 5032 ft 170 kts 143°
2026-05-04 17:24 51.55839 7.58726 5035 ft 170 kts 144°
2026-05-04 17:25 51.54938 7.59926 5031 ft 171 kts 144°
2026-05-04 17:25 51.53345 7.62749 5030 ft 177 kts 117°
2026-05-04 17:26 51.53302 7.66694 5032 ft 184 kts 73°
2026-05-04 17:26 51.54553 7.72521 5028 ft 184 kts 72°
2026-05-04 17:27 51.55372 7.76384 4838 ft 180 kts 74°
2026-05-04 17:27 51.56179 7.80227 4112 ft 180 kts 72°
2026-05-04 17:28 51.56962 7.83879 3801 ft 159 kts 72°
2026-05-04 17:29 51.58594 7.87968 3026 ft 149 kts
2026-05-04 17:29 51.60232 7.85565 3022 ft 108 kts 242°
2026-05-04 17:30 51.59185 7.82251 3035 ft 117 kts 239°
2026-05-04 17:31 51.58399 7.79925 2909 ft 122 kts 240°
2026-05-04 17:31 51.57130 7.76313 2419 ft 124 kts 239°
2026-05-04 17:32 51.56275 7.73878 2083 ft 126 kts 240°
2026-05-04 17:33 51.54971 7.70167 1571 ft 128 kts 238°
2026-05-04 17:33 51.54536 7.68919 1389 ft 127 kts 239°
2026-05-04 17:34 51.53297 7.65357 852 ft 118 kts 240°
2026-05-04 17:34 51.52891 7.64226 685 ft 116 kts 238°
2026-05-04 17:35 51.51846 7.61270 448 ft 95 kts 237°
2026-05-04 17:35 51.51041 7.59137 896 ft 123 kts 234°
2026-05-04 17:35 51.50262 7.58723 1126 ft 127 kts 165°
2026-05-04 17:36 51.49442 7.59338 1313 ft 132 kts 152°
2026-05-04 17:36 51.49088 7.60624 1393 ft 139 kts 76°
2026-05-04 17:36 51.49529 7.61968 1538 ft 136 kts 60°
2026-05-04 17:36 51.50039 7.63214 1640 ft 136 kts 58°
2026-05-04 17:37 51.50549 7.64525 1664 ft 140 kts 60°
2026-05-04 17:37 51.51041 7.65882 1571 ft 134 kts 63°
2026-05-04 17:37 51.51438 7.67118 1474 ft 119 kts 63°
2026-05-04 17:37 51.51823 7.68303 1290 ft 120 kts 64°
2026-05-04 17:38 51.52525 7.68752 1085 ft 119 kts 340°
2026-05-04 17:38 51.53054 7.67916 1007 ft 108 kts 277°
2026-05-04 17:38 51.53186 7.66726 924 ft 107 kts 275°
2026-05-04 17:38 51.53197 7.65544 845 ft 106 kts 259°
2026-05-04 17:39 51.52606 7.63415 596 ft 104 kts 238°
2026-05-04 17:39 51.52257 7.62421 473 ft 103 kts 238°
2026-05-04 17:39 51.51913 7.61452 422 ft 96 kts 238°
2026-05-04 17:40 51.51600 7.60550 471 ft 91 kts 239°
2026-05-04 17:40 51.51262 7.59565 714 ft 108 kts 237°
2026-05-04 17:40 51.50850 7.58475 832 ft 117 kts 235°
2026-05-04 17:40 51.50213 7.57812 1021 ft 116 kts 178°
2026-05-04 17:41 51.49416 7.58269 1070 ft 127 kts 155°
2026-05-04 17:41 51.48753 7.59180 1172 ft 132 kts 108°
2026-05-04 17:41 51.49005 7.60578 1273 ft 136 kts 61°
2026-05-04 17:41 51.49497 7.61886 1372 ft 138 kts 59°
2026-05-04 17:42 51.49995 7.63199 1486 ft 137 kts 59°
2026-05-04 17:42 51.50487 7.64530 1544 ft 140 kts 61°
2026-05-04 17:42 51.50947 7.65883 1595 ft 142 kts 63°
2026-05-04 17:42 51.51438 7.67340 1498 ft 150 kts 62°
2026-05-04 17:43 51.51975 7.68752 1364 ft 150 kts 45°
2026-05-04 17:43 51.52913 7.69167 1210 ft 139 kts 353°
2026-05-04 17:43 51.53784 7.68743 1185 ft 120 kts 334°
2026-05-04 17:43 51.54033 7.67698 1060 ft 107 kts 252°
2026-05-04 17:44 51.53742 7.66617 941 ft 105 kts 241°
2026-05-04 17:44 51.53407 7.65607 902 ft 99 kts 240°
2026-05-04 17:44 51.53049 7.64656 809 ft 101 kts 237°
2026-05-04 17:44 51.52706 7.63687 649 ft 90 kts 238°
2026-05-04 17:45 51.52424 7.62898 502 ft 77 kts 237°
2026-05-04 17:45 51.52170 7.62182 416 ft 71 kts 237°
2026-05-04 17:45 51.51961 7.61592 409 ft 52 kts 241°
2026-05-04 17:45 51.51805 7.61146 416 ft 42 kts 243°
2026-05-04 17:46 51.51678 7.60790 418 ft 29 kts 242°
2026-05-04 17:46 51.51590 7.60610 416 ft 16 kts 187°
2026-05-04 17:46 51.51531 7.60733 417 ft 18 kts 75°
2026-05-04 17:46 51.51548 7.60833 419 ft 9 kts 72°
2026-05-04 17:47 51.51562 7.60914 419 ft 0 kts 75°
2026-05-04 17:47 51.51566 7.60941 423 ft 8 kts 76°
2026-05-04 17:47 51.51573 7.61020 424 ft 14 kts 102°
2026-05-04 17:47 51.51477 7.60963 430 ft 17 kts 241°
2026-05-04 17:48 51.51412 7.60777 431 ft 20 kts 242°
2026-05-04 17:48 51.51341 7.60579 437 ft 21 kts 243°
2026-05-04 17:48 51.51264 7.60359 442 ft 23 kts 240°
2026-05-04 17:48 51.51187 7.60160 450 ft 15 kts 200°
2026-05-04 17:49 51.51155 7.60215 456 ft 15 kts 61°
2026-05-04 17:49 51.51206 7.60356 454 ft 7 kts 114°
2026-05-04 17:49 51.51198 7.60395 458 ft 0 kts 102°